createdAt,value
2019-06-08T00:02:05.312Z,15.00
2019-06-08T00:04:35.700Z,15.00
2019-06-08T00:07:06.093Z,15.00
2019-06-08T00:09:36.214Z,15.00
2019-06-08T00:12:06.316Z,15.00
2019-06-08T00:14:36.811Z,15.00
2019-06-08T00:17:06.962Z,15.00
2019-06-08T00:19:36.841Z,14.90
2019-06-08T00:22:06.955Z,14.90
2019-06-08T00:24:36.983Z,14.90
2019-06-08T00:27:07.111Z,14.80
2019-06-08T00:29:37.738Z,14.80
2019-06-08T00:32:07.838Z,14.90
2019-06-08T00:34:37.859Z,14.90
2019-06-08T00:37:07.974Z,14.90
2019-06-08T00:39:37.843Z,14.80
2019-06-08T00:42:07.701Z,14.80
2019-06-08T00:44:37.467Z,14.70
2019-06-08T00:47:07.327Z,14.60
2019-06-08T00:49:37.071Z,14.50
2019-06-08T00:52:06.882Z,14.50
2019-06-08T00:54:36.717Z,14.40
2019-06-08T00:57:06.546Z,14.40
2019-06-08T00:59:36.371Z,14.40
2019-06-08T01:02:07.461Z,14.30
2019-06-08T01:04:37.557Z,14.30
2019-06-08T01:07:07.651Z,14.30
2019-06-08T01:09:37.474Z,14.30
2019-06-08T01:12:07.571Z,14.20
2019-06-08T01:14:37.669Z,14.10
2019-06-08T01:17:07.500Z,14.10
2019-06-08T01:19:37.378Z,14.10
2019-06-08T01:22:07.138Z,14.00
2019-06-08T01:24:37.260Z,14.00
2019-06-08T01:27:07.104Z,14.00
2019-06-08T01:29:37.195Z,14.00
2019-06-08T01:32:07.861Z,14.00
2019-06-08T01:34:38.512Z,14.10
2019-06-08T01:37:08.672Z,14.10
2019-06-08T01:39:39.026Z,14.00
2019-06-08T01:42:09.106Z,14.00
2019-06-08T01:44:39.694Z,14.00
2019-06-08T01:47:09.514Z,13.90
2019-06-08T01:49:40.144Z,14.00
2019-06-08T01:52:09.980Z,14.00
2019-06-08T01:54:40.112Z,14.00
2019-06-08T01:57:10.374Z,13.90
2019-06-08T01:59:40.220Z,13.90
2019-06-08T02:02:10.038Z,13.90
2019-06-08T02:04:40.418Z,13.90
2019-06-08T02:07:10.248Z,13.90
2019-06-08T02:09:40.449Z,13.90
2019-06-08T02:12:10.786Z,14.00
2019-06-08T02:14:40.884Z,14.10
2019-06-08T02:17:10.986Z,14.10
2019-06-08T02:19:41.088Z,14.00
2019-06-08T02:22:11.715Z,14.00
2019-06-08T02:24:41.554Z,13.90
2019-06-08T02:27:12.008Z,13.90
2019-06-08T02:29:41.823Z,13.90
2019-06-08T02:32:11.656Z,13.90
2019-06-08T02:34:41.497Z,13.80
2019-06-08T02:37:11.603Z,13.90
2019-06-08T02:39:41.502Z,13.90
2019-06-08T02:42:11.344Z,13.80
2019-06-08T02:44:41.205Z,13.80
2019-06-08T02:47:11.045Z,13.80
2019-06-08T02:49:41.101Z,13.80
2019-06-08T02:52:11.860Z,13.80
2019-06-08T02:54:41.724Z,13.80
2019-06-08T02:57:13.116Z,13.80
2019-06-08T02:59:43.559Z,13.70
2019-06-08T03:02:15.081Z,13.70
2019-06-08T03:04:46.724Z,13.70
2019-06-08T03:07:18.316Z,13.70
2019-06-08T03:09:50.410Z,13.70
2019-06-08T03:12:22.240Z,13.70
2019-06-08T03:14:54.254Z,13.70
2019-06-08T03:17:24.705Z,13.60
2019-06-08T03:19:54.494Z,13.60
2019-06-08T03:22:24.320Z,13.60
2019-06-08T03:24:54.171Z,13.60
2019-06-08T03:27:23.998Z,13.70
2019-06-08T03:29:53.842Z,13.60
2019-06-08T03:32:23.689Z,13.60
2019-06-08T03:34:56.338Z,13.50
2019-06-08T03:37:25.121Z,13.50
2019-06-08T03:39:54.804Z,13.50
2019-06-08T03:42:24.569Z,13.50
2019-06-08T03:44:54.415Z,13.40
2019-06-08T03:47:24.153Z,13.50
2019-06-08T03:49:57.306Z,13.40
2019-06-08T03:52:25.355Z,13.40
2019-06-08T03:54:55.196Z,13.40
2019-06-08T03:57:24.895Z,13.40
2019-06-08T03:59:54.656Z,13.40
2019-06-08T04:02:24.505Z,13.40
2019-06-08T04:04:54.406Z,13.40
2019-06-08T04:07:24.258Z,13.30
2019-06-08T04:09:54.297Z,13.30
2019-06-08T04:12:24.485Z,13.30
2019-06-08T04:14:54.395Z,13.40
2019-06-08T04:17:24.375Z,13.20
2019-06-08T04:20:09.656Z,13.20
2019-06-08T04:22:25.727Z,13.20
2019-06-08T04:24:55.533Z,13.10
2019-06-08T04:27:25.391Z,13.10
2019-06-08T04:33:25.045Z,13.10
2019-06-08T04:35:54.659Z,13.10
2019-06-08T04:38:24.441Z,13.10
2019-06-08T04:40:54.488Z,13.20
2019-06-08T04:43:24.125Z,13.10
2019-06-08T04:45:53.823Z,13.10
2019-06-08T04:48:23.495Z,13.00
2019-06-08T04:50:53.130Z,13.00
2019-06-08T04:53:22.731Z,12.90
2019-06-08T04:55:52.529Z,12.80
2019-06-08T04:58:22.278Z,12.80
2019-06-08T05:00:52.178Z,12.80
2019-06-08T05:03:21.936Z,12.80
2019-06-08T05:05:51.628Z,12.90
2019-06-08T05:08:21.484Z,12.80
2019-06-08T05:10:51.222Z,12.90
2019-06-08T05:13:21.062Z,13.00
2019-06-08T05:15:53.626Z,12.90
2019-06-08T05:18:25.944Z,13.00
2019-06-08T05:20:54.962Z,13.00
2019-06-08T05:23:26.018Z,13.00
2019-06-08T05:25:57.078Z,13.00
2019-06-08T05:28:27.065Z,13.00
2019-06-08T05:30:57.377Z,13.00
2019-06-08T05:33:27.715Z,13.00
2019-06-08T05:35:58.022Z,13.10
2019-06-08T05:38:28.034Z,13.10
2019-06-08T05:40:58.110Z,13.10
2019-06-08T05:43:28.359Z,13.20
2019-06-08T05:45:58.434Z,13.20
2019-06-08T05:48:28.450Z,13.20
2019-06-08T05:51:03.850Z,13.20
2019-06-08T05:53:30.223Z,13.20
2019-06-08T05:55:59.890Z,13.10
2019-06-08T05:58:30.011Z,13.20
2019-06-08T06:00:59.756Z,13.20
2019-06-08T06:03:29.646Z,13.30
2019-06-08T06:05:59.462Z,13.30
2019-06-08T06:08:29.299Z,13.30
2019-06-08T06:10:59.115Z,13.20
2019-06-08T06:13:28.947Z,13.30
2019-06-08T06:15:59.033Z,13.30
2019-06-08T06:18:29.122Z,13.30
2019-06-08T06:21:10.585Z,13.50
2019-06-08T06:23:31.001Z,13.50
2019-06-08T06:26:01.263Z,13.60
2019-06-08T06:28:31.872Z,13.70
2019-06-08T06:31:01.977Z,13.70
2019-06-08T06:33:31.729Z,13.70
2019-06-08T06:36:01.551Z,13.80
2019-06-08T06:38:32.129Z,14.00
2019-06-08T06:41:02.143Z,15.40
2019-06-08T06:43:32.513Z,16.20
2019-06-08T06:46:02.898Z,17.50
2019-06-08T06:48:33.262Z,18.00
2019-06-08T06:51:03.048Z,20.00
2019-06-08T06:53:33.379Z,21.20
2019-06-08T06:56:03.503Z,20.10
2019-06-08T06:58:33.750Z,19.50
2019-06-08T07:01:03.969Z,18.30
2019-06-08T07:03:34.544Z,20.20
2019-06-08T07:06:04.414Z,19.40
2019-06-08T07:08:34.514Z,20.60
2019-06-08T07:11:04.899Z,20.60
2019-06-08T07:13:34.646Z,19.30
2019-06-08T07:16:17.993Z,19.90
2019-06-08T07:18:36.335Z,20.60
2019-06-08T07:21:06.006Z,20.50
2019-06-08T07:23:36.118Z,19.90
2019-06-08T07:26:07.899Z,20.20
2019-06-08T07:28:40.665Z,20.20
2019-06-08T07:31:11.008Z,19.70
2019-06-08T07:33:40.843Z,20.20
2019-06-08T07:36:10.642Z,18.80
2019-06-08T07:38:41.438Z,20.70
2019-06-08T07:41:11.526Z,22.90
2019-06-08T07:43:41.346Z,23.50
2019-06-08T07:46:11.502Z,21.30
2019-06-08T07:48:41.593Z,20.30
2019-06-08T07:51:12.207Z,20.90
2019-06-08T07:53:42.229Z,19.20
2019-06-08T07:56:12.316Z,20.60
2019-06-08T07:58:43.134Z,19.40
2019-06-08T08:01:13.229Z,20.50
2019-06-08T08:03:43.558Z,19.70
2019-06-08T08:06:13.715Z,21.90
2019-06-08T08:08:43.792Z,22.50
2019-06-08T08:11:13.726Z,24.60
2019-06-08T08:13:43.437Z,21.80
2019-06-08T08:16:14.146Z,21.80
2019-06-08T08:18:43.958Z,22.50
2019-06-08T08:21:22.365Z,21.20
2019-06-08T08:23:47.738Z,20.90
2019-06-08T08:26:17.862Z,23.60
2019-06-08T08:28:49.981Z,25.70
2019-06-08T08:31:19.936Z,25.00
2019-06-08T08:33:52.555Z,27.10
2019-06-08T08:36:21.863Z,26.80
2019-06-08T08:38:51.895Z,27.70
2019-06-08T08:41:22.146Z,28.50
2019-06-08T08:43:53.292Z,26.30
2019-06-08T08:46:24.082Z,27.50
2019-06-08T08:48:54.238Z,25.60
2019-06-08T08:51:27.908Z,26.00
2019-06-08T08:54:03.448Z,26.50
2019-06-08T09:00:04.342Z,24.20
2019-06-08T09:02:30.608Z,22.00
2019-06-08T09:05:03.371Z,23.30
2019-06-08T09:07:32.255Z,23.90
2019-06-08T09:10:03.645Z,24.30
2019-06-08T09:12:33.472Z,25.20
2019-06-08T09:15:03.987Z,25.10
2019-06-08T09:17:34.045Z,25.70
2019-06-08T09:20:04.976Z,25.10
2019-06-08T09:22:47.153Z,23.90
2019-06-08T09:25:08.743Z,24.90
2019-06-08T09:27:38.629Z,23.70
2019-06-08T09:30:08.601Z,23.20
2019-06-08T09:32:40.654Z,22.20
2019-06-08T09:35:10.567Z,22.30
2019-06-08T09:37:40.264Z,23.80
2019-06-08T09:40:32.518Z,25.60
2019-06-08T09:43:07.441Z,24.90
2019-06-08T09:45:32.289Z,25.20
2019-06-08T09:48:04.454Z,25.20
2019-06-08T09:50:33.586Z,24.80
2019-06-08T09:53:22.069Z,22.50
2019-06-08T09:55:35.077Z,22.00
2019-06-08T09:58:08.272Z,21.50
2019-06-08T10:00:37.921Z,22.80
2019-06-08T10:03:09.475Z,22.00
2019-06-08T10:05:39.741Z,21.30
2019-06-08T10:08:09.803Z,21.50
2019-06-08T10:10:39.716Z,23.00
2019-06-08T10:13:10.187Z,22.10
2019-06-08T10:15:40.254Z,22.00
2019-06-08T10:18:10.040Z,21.00
2019-06-08T10:20:40.473Z,21.60
2019-06-08T10:23:27.355Z,20.30
2019-06-08T10:25:41.827Z,20.40
2019-06-08T10:28:14.859Z,21.00
2019-06-08T10:30:43.007Z,21.10
2019-06-08T10:33:12.788Z,23.40
2019-06-08T10:35:42.649Z,24.50
2019-06-08T10:38:12.453Z,23.60
2019-06-08T10:41:08.607Z,21.90
2019-06-08T10:43:31.879Z,23.00
2019-06-08T10:46:08.439Z,23.50
2019-06-08T10:48:33.281Z,22.80
2019-06-08T10:51:05.437Z,21.90
2019-06-08T10:53:46.476Z,21.40
2019-06-08T10:56:09.804Z,21.90
2019-06-08T10:58:37.526Z,22.30
2019-06-08T11:01:12.177Z,22.30
2019-06-08T11:03:39.112Z,21.80
2019-06-08T11:06:12.806Z,22.40
2019-06-08T11:08:40.379Z,23.10
2019-06-08T11:11:11.980Z,23.40
2019-06-08T11:13:42.175Z,23.80
2019-06-08T11:16:13.404Z,24.70
2019-06-08T11:18:43.902Z,23.70
2019-06-08T11:21:13.731Z,23.20
2019-06-08T11:23:43.881Z,23.90
2019-06-08T11:26:20.869Z,24.20
2019-06-08T11:28:48.355Z,25.00
2019-06-08T11:31:19.617Z,24.00
2019-06-08T11:33:49.125Z,23.80
2019-06-08T11:36:19.471Z,23.60
2019-06-08T11:38:49.283Z,23.20
2019-06-08T11:41:22.611Z,24.10
2019-06-08T11:43:50.636Z,24.70
2019-06-08T11:46:21.773Z,23.90
2019-06-08T11:48:51.918Z,24.90
2019-06-08T11:51:21.825Z,24.90
2019-06-08T11:53:52.590Z,25.10
2019-06-08T11:56:22.869Z,25.10
2019-06-08T11:58:54.530Z,26.00
2019-06-08T12:01:24.337Z,25.70
2019-06-08T12:03:54.125Z,25.90
2019-06-08T12:06:23.948Z,26.40
2019-06-08T12:08:53.680Z,25.90
2019-06-08T12:11:23.460Z,25.60
2019-06-08T12:13:53.256Z,24.00
2019-06-08T12:16:23.055Z,23.00
2019-06-08T12:18:52.892Z,22.90
2019-06-08T12:21:22.644Z,23.80
2019-06-08T12:23:52.391Z,24.20
2019-06-08T12:26:22.114Z,23.50
2019-06-08T12:28:51.848Z,24.50
2019-06-08T12:31:22.800Z,26.10
2019-06-08T12:33:53.261Z,26.00
2019-06-08T12:36:23.108Z,26.30
2019-06-08T12:38:52.871Z,25.50
2019-06-08T12:41:22.690Z,24.90
2019-06-08T12:43:52.439Z,25.30
2019-06-08T12:46:22.189Z,25.60
2019-06-08T12:48:51.910Z,26.30
2019-06-08T12:51:21.794Z,26.20
2019-06-08T12:53:51.851Z,26.30
2019-06-08T12:56:24.091Z,26.50
2019-06-08T12:58:53.193Z,26.40
2019-06-08T13:01:22.970Z,26.60
2019-06-08T13:03:52.815Z,26.30
2019-06-08T13:06:22.595Z,26.30
2019-06-08T13:08:52.813Z,25.30
2019-06-08T13:11:22.899Z,25.40
2019-06-08T13:13:52.767Z,25.30
2019-06-08T13:16:24.227Z,24.90
2019-06-08T13:18:54.413Z,25.40
2019-06-08T13:21:34.273Z,25.90
2019-06-08T13:23:58.126Z,25.90
2019-06-08T13:26:32.066Z,25.60
2019-06-08T13:29:01.963Z,25.50
2019-06-08T13:31:31.672Z,25.20
2019-06-08T13:34:01.370Z,25.50
2019-06-08T13:36:31.160Z,25.10
2019-06-08T13:39:00.814Z,24.80
2019-06-08T13:41:30.442Z,24.90
2019-06-08T13:44:00.268Z,24.00
2019-06-08T13:46:29.976Z,23.30
2019-06-08T13:48:59.721Z,23.60
2019-06-08T13:51:29.616Z,23.70
2019-06-08T13:53:59.590Z,24.40
2019-06-08T13:56:29.347Z,25.10
2019-06-08T13:58:59.309Z,25.10
2019-06-08T14:01:30.762Z,25.20
2019-06-08T14:04:01.185Z,25.50
2019-06-08T14:06:31.009Z,25.70
2019-06-08T14:09:00.804Z,25.30
2019-06-08T14:11:30.477Z,24.60
2019-06-08T14:14:01.369Z,24.60
2019-06-08T14:16:31.464Z,24.70
2019-06-08T14:19:01.278Z,24.70
2019-06-08T14:21:38.749Z,24.60
2019-06-08T14:24:02.489Z,24.80
2019-06-08T14:26:32.326Z,24.70
2019-06-08T14:29:02.060Z,24.70
2019-06-08T14:31:32.445Z,24.60
2019-06-08T14:34:05.324Z,23.20
2019-06-08T14:36:35.065Z,24.00
2019-06-08T14:39:05.702Z,24.30
2019-06-08T14:41:35.436Z,24.40
2019-06-08T14:44:05.336Z,24.10
2019-06-08T14:46:40.783Z,24.00
2019-06-08T14:49:07.024Z,23.80
2019-06-08T14:51:49.655Z,23.10
2019-06-08T14:54:23.494Z,23.40
2019-06-08T14:56:52.208Z,24.20
2019-06-08T14:59:23.732Z,23.20
2019-06-08T15:01:53.685Z,23.20
2019-06-08T15:04:28.396Z,23.80
2019-06-08T15:06:58.597Z,24.20
2019-06-08T15:09:29.862Z,24.00
2019-06-08T15:11:59.820Z,24.40
2019-06-08T15:14:35.026Z,24.50
2019-06-08T15:17:01.104Z,24.50
2019-06-08T15:19:32.549Z,24.40
2019-06-08T15:22:02.545Z,23.20
2019-06-08T15:24:32.924Z,22.90
2019-06-08T15:27:03.024Z,22.10
2019-06-08T15:29:32.977Z,21.90
2019-06-08T15:32:03.255Z,22.00
2019-06-08T15:34:33.211Z,21.90
2019-06-08T15:37:03.215Z,21.90
2019-06-08T15:39:34.169Z,21.90
2019-06-08T15:42:04.421Z,21.80
2019-06-08T15:44:34.291Z,21.70
2019-06-08T15:47:04.080Z,21.60
2019-06-08T15:49:34.063Z,21.70
2019-06-08T15:52:04.149Z,21.90
2019-06-08T15:54:37.493Z,21.90
2019-06-08T15:57:05.434Z,22.10
2019-06-08T15:59:40.803Z,22.30
2019-06-08T16:02:06.799Z,22.40
2019-06-08T16:04:36.674Z,22.20
2019-06-08T16:07:06.656Z,22.30
2019-06-08T16:09:36.745Z,22.30
2019-06-08T16:12:06.541Z,22.30
2019-06-08T16:14:37.081Z,21.80
2019-06-08T16:17:06.812Z,21.60
2019-06-08T16:19:36.577Z,21.50
2019-06-08T16:22:06.510Z,21.40
2019-06-08T16:24:36.362Z,21.70
2019-06-08T16:27:07.448Z,21.60
2019-06-08T16:29:37.227Z,21.60
2019-06-08T16:32:07.021Z,21.80
2019-06-08T16:34:36.830Z,21.70
2019-06-08T16:37:06.838Z,21.30
2019-06-08T16:39:36.680Z,21.40
2019-06-08T16:42:06.471Z,21.40
2019-06-08T16:44:36.456Z,21.60
2019-06-08T16:47:06.379Z,21.70
2019-06-08T16:49:36.081Z,21.90
2019-06-08T16:52:05.956Z,21.90
2019-06-08T16:54:37.260Z,22.10
2019-06-08T16:57:10.813Z,22.20
2019-06-08T16:59:39.656Z,22.30
2019-06-08T17:02:09.771Z,22.30
2019-06-08T17:04:39.618Z,22.40
2019-06-08T17:07:09.394Z,22.30
2019-06-08T17:09:40.037Z,22.10
2019-06-08T17:12:11.597Z,22.00
2019-06-08T17:14:41.472Z,21.90
2019-06-08T17:17:11.523Z,21.80
2019-06-08T17:19:41.295Z,21.80
2019-06-08T17:22:11.015Z,21.40
2019-06-08T17:24:40.838Z,21.20
2019-06-08T17:27:25.753Z,21.00
2019-06-08T17:29:42.187Z,20.80
2019-06-08T17:32:11.995Z,21.00
2019-06-08T17:34:42.475Z,21.00
2019-06-08T17:37:12.520Z,21.00
2019-06-08T17:39:42.774Z,20.90
2019-06-08T17:42:12.715Z,20.90
2019-06-08T17:44:42.690Z,20.90
2019-06-08T17:47:12.512Z,20.90
2019-06-08T17:49:43.244Z,20.90
2019-06-08T17:52:13.215Z,20.80
2019-06-08T17:54:43.295Z,20.80
2019-06-08T17:57:13.620Z,20.90
2019-06-08T17:59:43.429Z,20.70
2019-06-08T18:02:18.160Z,20.60
2019-06-08T18:04:44.777Z,20.50
2019-06-08T18:07:17.008Z,20.50
2019-06-08T18:09:48.336Z,20.50
2019-06-08T18:12:18.681Z,20.40
2019-06-08T18:14:48.720Z,20.30
2019-06-08T18:17:18.456Z,20.20
2019-06-08T18:19:49.706Z,20.20
2019-06-08T18:22:19.735Z,20.10
2019-06-08T18:24:49.451Z,20.00
2019-06-08T18:27:19.314Z,20.00
2019-06-08T18:29:49.628Z,19.90
2019-06-08T18:32:19.399Z,19.80
2019-06-08T18:34:49.572Z,19.70
2019-06-08T18:37:19.316Z,19.50
2019-06-08T18:39:49.744Z,19.40
2019-06-08T18:42:20.416Z,19.40
2019-06-08T18:44:50.199Z,19.30
2019-06-08T18:47:20.072Z,19.20
2019-06-08T18:49:49.846Z,19.10
2019-06-08T18:52:19.865Z,19.00
2019-06-08T18:54:49.950Z,18.80
2019-06-08T18:57:20.092Z,18.50
2019-06-08T18:59:53.006Z,18.30
2019-06-08T19:02:21.355Z,18.00
2019-06-08T19:04:51.416Z,17.80
2019-06-08T19:07:21.471Z,17.60
2019-06-08T19:09:51.472Z,17.60
2019-06-08T19:12:21.193Z,17.40
2019-06-08T19:14:52.353Z,17.20
2019-06-08T19:17:22.520Z,17.00
2019-06-08T19:19:52.656Z,16.90
2019-06-08T19:22:22.502Z,16.80
2019-06-08T19:24:52.224Z,16.60
2019-06-08T19:27:21.951Z,16.50
2019-06-08T19:29:51.989Z,16.40
2019-06-08T19:32:22.006Z,16.50
2019-06-08T19:34:54.441Z,16.30
2019-06-08T19:37:23.339Z,16.30
2019-06-08T19:39:53.052Z,16.20
2019-06-08T19:42:35.943Z,16.00
2019-06-08T19:45:04.200Z,15.90
2019-06-08T19:47:27.308Z,15.80
2019-06-08T19:49:57.910Z,15.70
2019-06-08T19:52:27.880Z,15.60
2019-06-08T19:54:58.081Z,15.80
2019-06-08T19:57:28.410Z,15.50
2019-06-08T20:02:47.776Z,15.30
2019-06-08T20:05:19.931Z,15.10
2019-06-08T20:07:49.973Z,15.00
2019-06-08T20:10:19.758Z,15.00
2019-06-08T20:12:50.985Z,14.90
2019-06-08T20:15:20.896Z,14.90
2019-06-08T20:17:51.566Z,14.90
2019-06-08T20:20:27.880Z,14.80
2019-06-08T20:23:02.072Z,14.80
2019-06-08T20:25:33.483Z,14.70
2019-06-08T20:28:03.385Z,14.60
2019-06-08T20:30:33.244Z,14.60
2019-06-08T20:33:27.204Z,14.50
2019-06-08T20:35:58.689Z,14.50
2019-06-08T20:38:38.271Z,14.40
2019-06-08T20:41:00.323Z,14.40
2019-06-08T20:43:30.108Z,14.30
2019-06-08T20:45:59.893Z,14.20
2019-06-08T20:48:31.811Z,14.10
2019-06-08T20:51:01.453Z,14.00
2019-06-08T20:53:32.135Z,13.90
2019-06-08T20:56:01.817Z,13.80
2019-06-08T20:58:34.015Z,13.70
2019-06-08T21:01:03.811Z,13.50
2019-06-08T21:03:36.409Z,13.50
2019-06-08T21:06:07.703Z,13.50
2019-06-08T21:08:40.058Z,13.60
2019-06-08T21:11:09.116Z,13.50
2019-06-08T21:13:39.664Z,13.60
2019-06-08T21:16:09.472Z,13.40
2019-06-08T21:18:42.143Z,13.40
2019-06-08T21:21:12.035Z,13.30
2019-06-08T21:23:41.731Z,13.20
2019-06-08T21:26:13.059Z,13.20
2019-06-08T21:28:42.748Z,13.20
2019-06-08T21:31:12.604Z,13.30
2019-06-08T21:33:42.250Z,13.10
2019-06-08T21:36:11.897Z,13.00
2019-06-08T21:38:41.523Z,12.90
2019-06-08T21:41:11.339Z,12.80
2019-06-08T21:43:42.326Z,12.60
2019-06-08T21:46:14.878Z,12.40
2019-06-08T21:48:51.125Z,12.50
2019-06-08T21:51:19.959Z,12.50
2019-06-08T21:53:51.109Z,12.40
2019-06-08T21:56:21.380Z,12.40
2019-06-08T21:58:51.829Z,12.40
2019-06-08T22:01:23.273Z,12.40
2019-06-08T22:03:58.112Z,12.40
2019-06-08T22:06:48.025Z,12.30
2019-06-08T22:09:18.181Z,12.30
2019-06-08T22:11:51.530Z,12.40
2019-06-08T22:14:22.341Z,12.30
2019-06-08T22:16:52.494Z,12.40
2019-06-08T22:19:23.791Z,12.50
2019-06-08T22:21:53.824Z,12.50
2019-06-08T22:24:24.158Z,12.60
2019-06-08T22:26:55.193Z,12.60
2019-06-08T22:29:27.592Z,12.70
2019-06-08T22:31:57.668Z,12.80
2019-06-08T22:34:28.090Z,12.80
2019-06-08T22:36:59.034Z,12.80
2019-06-08T22:39:29.158Z,12.70
2019-06-08T22:42:01.168Z,12.70
2019-06-08T22:44:30.304Z,12.60
2019-06-08T22:47:03.279Z,12.50
2019-06-08T22:49:34.729Z,12.40
2019-06-08T22:52:04.574Z,12.40
2019-06-08T22:54:34.276Z,12.30
2019-06-08T22:57:09.133Z,12.20
2019-06-08T22:59:38.868Z,12.00
2019-06-08T23:02:09.281Z,11.70
2019-06-08T23:04:40.231Z,11.50
2019-06-08T23:07:25.519Z,11.40
2019-06-08T23:10:03.039Z,11.30
2019-06-08T23:12:34.235Z,11.30
2019-06-08T23:15:05.018Z,11.30
2019-06-08T23:17:35.370Z,11.30
2019-06-08T23:20:07.887Z,11.20
2019-06-08T23:22:38.486Z,11.20
2019-06-08T23:25:09.608Z,11.20
2019-06-08T23:27:42.757Z,11.10
2019-06-08T23:30:11.807Z,11.20
2019-06-08T23:32:44.261Z,11.10
2019-06-08T23:35:14.205Z,11.10
2019-06-08T23:37:44.112Z,11.00
2019-06-08T23:40:14.506Z,11.10
2019-06-08T23:42:44.351Z,11.10
2019-06-08T23:48:22.507Z,11.20
2019-06-08T23:50:52.216Z,11.20
2019-06-08T23:53:22.007Z,11.10
2019-06-08T23:55:52.983Z,11.00
2019-06-08T23:58:24.429Z,11.00
